Terminal Aerodrome Forecast
Issued by NWS Shreveport, LA

Home | Current Version | Previous Version | Text Only | Print | Product List | Glossary On
Versions: 1 2 3 4 5 6 7 8 9 10 11 12 13 14
000
FTUS44 KSHV 031742
TAFGGG
TAF
KGGG 031742Z 0318/0418 35009KT P6SM SCT050
     FM040000 35004KT P6SM SCT150 BKN250
     FM040300 34002KT P6SM SCT100 BKN150
     FM040600 VRB03KT P6SM BKN080 BKN150
     FM041400 27007KT P6SM BKN060=

USA.gov is the U.S. government's official web portal to all federal, state and local government web resources and services.